Time;durP1;ratioP1;P1;durP2;ratioP2;P2;SDS_P1;SDS_P2;PMS_P1;PMS_P2;Temp;Humidity;BMP_temperature;BMP_pressure;BME280_temperature;BME280_humidity;BME280_pressure;Samples;Min_cycle;Max_cycle;Signal;HPM_P1;HPM_P2
2022/12/04 00:00:33;;;;;;;4.25;3.95;;;20.30;50.90;;;;;;5042072;28;43709;-57
2022/12/04 00:03:01;;;;;;;5.00;4.57;;;20.30;50.90;;;;;;5041259;28;43491;-57
2022/12/04 00:05:29;;;;;;;5.00;4.60;;;20.30;50.90;;;;;;5040017;28;44849;-57
2022/12/04 00:07:56;;;;;;;5.30;4.90;;;20.20;50.80;;;;;;5041885;28;43349;-57
2022/12/04 00:10:24;;;;;;;5.30;4.80;;;20.20;50.90;;;;;;5041980;28;43422;-58
2022/12/04 00:12:51;;;;;;;5.30;4.80;;;20.20;50.90;;;;;;5041182;28;43548;-58
2022/12/04 00:15:18;;;;;;;6.03;5.43;;;20.20;50.90;;;;;;5041538;28;44059;-57
2022/12/04 00:17:53;;;;;;;5.38;4.88;;;20.20;50.90;;;;;;5041581;28;43667;-57
2022/12/04 00:20:21;;;;;;;5.50;5.00;;;20.20;50.90;;;;;;5040693;28;43423;-58
2022/12/04 00:22:49;;;;;;;4.88;4.43;;;20.10;51.00;;;;;;5041623;28;44033;-57
2022/12/04 00:25:16;;;;;;;5.32;4.82;;;20.10;50.90;;;;;;5040441;28;43812;-57
2022/12/04 00:27:44;;;;;;;5.47;5.00;;;20.10;50.90;;;;;;5041200;28;43705;-57
2022/12/04 00:30:12;;;;;;;5.50;5.00;;;20.10;50.80;;;;;;5041179;28;43411;-58
2022/12/04 00:32:39;;;;;;;5.60;5.10;;;20.10;50.90;;;;;;5040882;28;43415;-57
2022/12/04 00:35:08;;;;;;;5.40;4.90;;;20.10;50.80;;;;;;5034175;28;44678;-57
2022/12/04 00:37:36;;;;;;;5.63;5.13;;;20.10;50.90;;;;;;5040461;28;43650;-58
2022/12/04 00:40:04;;;;;;;5.75;5.25;;;20.10;50.80;;;;;;5041285;28;43501;-57
2022/12/04 00:42:32;;;;;;;5.55;5.05;;;20.10;50.80;;;;;;5036764;28;43438;-58
2022/12/04 00:45:00;;;;;;;5.57;5.07;;;20.00;50.80;;;;;;5044812;28;43811;-57
2022/12/04 00:47:27;;;;;;;5.72;5.22;;;20.00;50.80;;;;;;5043481;28;43433;-57
2022/12/04 00:49:54;;;;;;;5.43;4.93;;;20.00;51.40;;;;;;5044809;28;43514;-57
2022/12/04 00:52:22;;;;;;;5.68;5.15;;;20.10;50.80;;;;;;5044990;28;43412;-57
2022/12/04 00:54:50;;;;;;;5.75;5.25;;;20.00;50.80;;;;;;5043882;28;43786;-57
2022/12/04 00:57:17;;;;;;;5.90;4.93;;;20.00;50.90;;;;;;5044051;28;44021;-57
2022/12/04 00:59:45;;;;;;;5.93;5.43;;;20.00;50.80;;;;;;5044777;28;43543;-58
2022/12/04 01:02:12;;;;;;;6.15;5.55;;;19.90;50.80;;;;;;5043680;28;43554;-57
2022/12/04 01:04:39;;;;;;;5.45;4.95;;;19.90;50.80;;;;;;5044032;28;44694;-58
2022/12/04 01:07:07;;;;;;;5.85;5.30;;;19.90;50.80;;;;;;5040368;28;43970;-57
2022/12/04 01:09:34;;;;;;;5.40;4.90;;;19.90;50.80;;;;;;5030559;28;43449;-57
2022/12/04 01:12:02;;;;;;;5.72;5.13;;;19.90;50.90;;;;;;5044161;28;43423;-57
2022/12/04 01:14:29;;;;;;;6.22;5.63;;;19.90;50.90;;;;;;5043393;28;45332;-57
2022/12/04 01:16:57;;;;;;;5.35;4.85;;;19.80;50.90;;;;;;5043707;28;43780;-58
2022/12/04 01:19:25;;;;;;;5.90;5.40;;;19.90;50.90;;;;;;5044217;28;43463;-57
2022/12/04 01:21:52;;;;;;;5.10;4.60;;;19.80;50.80;;;;;;5043689;28;44070;-57
2022/12/04 01:24:20;;;;;;;6.20;5.65;;;19.80;50.80;;;;;;5044146;28;43783;-57
2022/12/04 01:26:47;;;;;;;5.70;5.15;;;19.80;50.80;;;;;;5043811;28;43471;-57
2022/12/04 01:29:15;;;;;;;5.57;4.88;;;19.80;50.80;;;;;;5043198;28;43451;-57
2022/12/04 01:31:42;;;;;;;5.80;5.30;;;19.80;50.80;;;;;;5044064;28;43523;-57
2022/12/04 01:34:10;;;;;;;5.38;4.93;;;19.80;50.90;;;;;;5043728;28;44047;-57
2022/12/04 01:36:37;;;;;;;5.60;5.13;;;19.80;50.90;;;;;;5043168;28;43703;-58
2022/12/04 01:39:05;;;;;;;5.80;5.25;;;19.80;50.90;;;;;;5044123;28;43467;-58
2022/12/04 01:41:32;;;;;;;5.82;5.32;;;19.80;50.90;;;;;;5044141;28;43437;-57
2022/12/04 01:44:08;;;;;;;5.90;5.35;;;19.80;50.90;;;;;;5043500;28;43733;-57
2022/12/04 01:46:36;;;;;;;6.10;5.50;;;19.70;50.90;;;;;;5029004;28;43664;-57
2022/12/04 01:49:07;;;;;;;6.22;5.63;;;19.70;50.90;;;;;;5043805;28;43448;-58
2022/12/04 01:51:41;;;;;;;6.40;5.80;;;19.70;50.90;;;;;;5037168;28;43442;-58
2022/12/04 01:54:27;;;;;;;6.28;5.68;;;19.70;50.90;;;;;;5043255;28;44051;-57
2022/12/04 01:57:10;;;;;;;6.00;5.50;;;19.70;50.90;;;;;;5043017;28;43455;-57
2022/12/04 01:59:47;;;;;;;6.40;5.80;;;19.70;50.90;;;;;;5043560;28;43484;-58
2022/12/04 02:02:19;;;;;;;6.22;5.63;;;19.60;50.90;;;;;;5027956;28;43571;-57
2022/12/04 02:04:48;;;;;;;6.43;5.82;;;19.60;51.00;;;;;;5041336;28;43812;-57
2022/12/04 02:07:15;;;;;;;6.15;5.60;;;19.60;50.90;;;;;;5042585;28;43988;-58
2022/12/04 02:09:44;;;;;;;6.13;5.55;;;19.60;50.90;;;;;;5043095;28;43350;-58
2022/12/04 02:12:23;;;;;;;6.85;6.22;;;19.60;50.90;;;;;;5042492;28;45012;-57
2022/12/04 02:15:28;;;;;;;7.00;6.32;;;19.60;50.90;;;;;;5043264;28;44071;-57
2022/12/04 02:18:02;;;;;;;6.85;6.15;;;19.60;50.90;;;;;;5042354;28;43977;-57
2022/12/04 02:20:42;;;;;;;6.28;5.68;;;19.60;50.90;;;;;;5043261;28;43328;-57
2022/12/04 02:23:18;;;;;;;6.40;5.80;;;19.60;50.90;;;;;;5041091;28;43435;-57
2022/12/04 02:25:57;;;;;;;6.50;5.90;;;19.50;50.80;;;;;;5042378;28;44844;-57
2022/12/04 02:28:35;;;;;;;6.55;5.57;;;19.50;50.90;;;;;;5042794;28;43881;-58
2022/12/04 02:31:09;;;;;;;7.03;6.00;;;19.50;50.90;;;;;;5043711;28;43370;-57
2022/12/04 02:33:47;;;;;;;7.03;6.05;;;19.50;50.90;;;;;;5042051;28;43456;-57
2022/12/04 02:36:28;;;;;;;6.57;5.88;;;19.50;50.90;;;;;;5043236;28;44684;-57
2022/12/04 02:39:25;;;;;;;6.63;6.03;;;19.50;50.90;;;;;;5042337;28;43691;-58
2022/12/04 02:41:55;;;;;;;6.97;5.68;;;19.50;50.90;;;;;;5043117;28;43369;-57
2022/12/04 02:44:33;;;;;;;6.10;5.53;;;19.40;50.90;;;;;;5042474;28;43448;-57
2022/12/04 02:47:06;;;;;;;6.45;5.80;;;19.50;51.00;;;;;;5042078;28;45053;-58
2022/12/04 02:49:44;;;;;;;6.72;6.03;;;19.40;51.00;;;;;;5037553;28;43691;-57
2022/12/04 02:52:16;;;;;;;6.13;5.63;;;19.40;50.90;;;;;;5033697;28;43456;-57
2022/12/04 02:54:53;;;;;;;6.78;6.18;;;19.40;51.00;;;;;;5042088;28;43420;-58
2022/12/04 02:57:27;;;;;;;6.70;6.10;;;19.40;51.00;;;;;;5026968;28;44045;-57
2022/12/04 02:59:58;;;;;;;6.68;6.07;;;19.40;51.00;;;;;;5042707;28;43773;-57
2022/12/04 03:02:45;;;;;;;;;;;19.40;51.10;;;;;;5039803;28;43412;-57
2022/12/04 03:05:16;;;;;;;6.47;5.88;;;19.40;51.00;;;;;;5021821;28;43495;-58
2022/12/04 03:07:43;;;;;;;;;;;19.30;51.10;;;;;;5022407;28;43787;-57
2022/12/04 03:10:30;;;;;;;6.63;6.03;;;19.30;51.10;;;;;;5035131;28;43475;-58
2022/12/04 03:13:04;;;;;;;6.50;5.90;;;19.30;51.10;;;;;;5041958;28;43523;-57
2022/12/04 03:15:45;;;;;;;7.60;6.63;;;19.30;51.10;;;;;;5032338;28;43445;-57
2022/12/04 03:18:25;;;;;;;6.88;6.20;;;19.30;51.10;;;;;;5036562;28;43813;-57
2022/12/04 03:21:00;;;;;;;6.95;6.35;;;19.30;51.10;;;;;;5042450;28;43788;-57
2022/12/04 03:23:34;;;;;;;6.72;6.03;;;19.30;51.10;;;;;;5031538;28;43413;-57
2022/12/04 03:26:19;;;;;;;7.38;6.63;;;19.20;51.10;;;;;;5042229;28;43448;-57
2022/12/04 03:29:14;;;;;;;7.20;6.50;;;19.20;51.10;;;;;;5021870;28;44745;-58
2022/12/04 03:32:13;;;;;;;7.40;6.60;;;19.20;51.10;;;;;;5034286;28;43927;-58
2022/12/04 03:34:53;;;;;;;7.60;6.90;;;19.20;51.20;;;;;;5020641;28;43507;-57
2022/12/04 03:37:56;;;;;;;7.40;6.70;;;19.20;51.20;;;;;;5040514;28;43399;-58
2022/12/04 03:40:42;;;;;;;7.70;6.90;;;19.20;51.20;;;;;;5041955;28;44678;-58
2022/12/04 03:43:19;;;;;;;8.18;7.38;;;19.20;51.20;;;;;;5041381;28;43368;-57
2022/12/04 03:46:10;;;;;;;7.20;6.50;;;19.10;51.20;;;;;;5041976;28;43459;-58
2022/12/04 03:48:50;;;;;;;7.85;7.05;;;19.10;51.20;;;;;;5027609;28;43455;-57
2022/12/04 03:51:22;;;;;;;7.45;6.75;;;19.10;51.20;;;;;;5041462;28;43881;-58
2022/12/04 03:54:14;;;;;;;7.60;6.85;;;19.10;51.10;;;;;;5041447;28;43413;-57
2022/12/04 03:56:56;;;;;;;7.55;6.85;;;19.10;51.20;;;;;;5023463;28;43393;-57
2022/12/04 03:59:27;;;;;;;7.75;7.05;;;19.10;51.20;;;;;;5041612;28;44165;-57
2022/12/04 04:01:58;;;;;;;8.13;7.38;;;19.10;51.20;;;;;;5040202;28;44960;-57
2022/12/04 04:04:28;;;;;;;;;;;19.00;51.80;;;;;;5038111;28;43399;-57
2022/12/04 04:07:07;;;;;;;8.02;7.32;;;19.00;51.20;;;;;;5041314;28;43736;-58
2022/12/04 04:09:39;;;;;;;8.10;7.38;;;19.00;51.30;;;;;;5041453;28;43516;-58
2022/12/04 04:12:09;;;;;;;7.70;6.95;;;19.00;51.30;;;;;;5029317;28;43805;-58
2022/12/04 04:26:19;;;;;;;8.57;7.78;;;18.90;51.30;;;;;;5040257;28;43475;-58
2022/12/04 04:28:47;;;;;;;8.95;8.05;;;18.90;51.30;;;;;;5041146;28;43454;-58
2022/12/04 04:31:25;;;;;;;8.90;8.10;;;18.90;51.60;;;;;;5041458;28;43502;-58
2022/12/04 04:33:55;;;;;;;8.20;7.40;;;18.90;51.40;;;;;;5027252;28;43953;-57
2022/12/04 04:36:30;;;;;;;8.52;7.72;;;18.80;51.30;;;;;;5040888;28;43464;-57
2022/12/04 04:39:22;;;;;;;8.40;7.70;;;18.80;51.30;;;;;;5040755;28;43443;-57
2022/12/04 04:42:13;;;;;;;8.98;8.18;;;18.80;51.30;;;;;;5018517;28;43676;-58
2022/12/04 04:44:58;;;;;;;8.65;7.85;;;18.80;51.30;;;;;;5023040;28;43814;-58
2022/12/04 04:47:44;;;;;;;9.60;8.70;;;18.80;51.30;;;;;;5024967;28;43454;-57
2022/12/04 04:50:14;;;;;;;8.93;8.07;;;18.80;51.30;;;;;;5041113;28;43420;-58
2022/12/04 04:52:48;;;;;;;9.10;8.27;;;18.80;51.30;;;;;;5040674;28;43426;-58
2022/12/04 04:55:18;;;;;;;8.57;7.82;;;18.80;51.30;;;;;;5039219;28;43573;-57
2022/12/04 04:57:45;;;;;;;9.10;8.20;;;18.70;51.30;;;;;;5039354;28;43433;-57
2022/12/04 05:00:20;;;;;;;8.82;7.93;;;18.70;51.30;;;;;;5039328;28;43345;-58
2022/12/04 05:02:49;;;;;;;9.27;8.40;;;18.70;51.30;;;;;;5027250;28;43470;-57
2022/12/04 05:05:16;;;;;;;9.40;8.50;;;18.70;51.40;;;;;;5035350;28;43816;-58
2022/12/04 05:07:44;;;;;;;9.02;8.13;;;18.70;51.40;;;;;;5026915;28;43483;-58
2022/12/04 05:10:12;;;;;;;8.93;8.07;;;18.70;51.40;;;;;;5040680;28;43434;-58
2022/12/04 05:12:40;;;;;;;9.18;8.27;;;18.70;51.40;;;;;;5023777;28;43423;-57
2022/12/04 05:15:08;;;;;;;9.40;8.50;;;18.70;51.40;;;;;;5040090;28;44713;-58
2022/12/04 05:17:36;;;;;;;9.68;8.75;;;18.70;51.40;;;;;;5040186;28;43683;-57
2022/12/04 05:20:04;;;;;;;9.13;8.32;;;18.60;51.40;;;;;;5040737;28;43425;-58
2022/12/04 05:22:34;;;;;;;10.00;9.10;;;18.60;51.40;;;;;;5039940;28;43422;-57
2022/12/04 05:25:03;;;;;;;9.00;8.15;;;18.60;51.40;;;;;;5034980;28;44072;-57
2022/12/04 05:27:31;;;;;;;9.10;8.30;;;18.60;51.50;;;;;;5034517;28;43471;-57
2022/12/04 05:29:59;;;;;;;9.38;8.48;;;18.60;51.50;;;;;;5043651;28;43415;-57
2022/12/04 05:32:28;;;;;;;9.52;8.63;;;18.50;51.50;;;;;;5042298;28;43542;-57
2022/12/04 05:34:57;;;;;;;9.25;8.35;;;18.50;51.50;;;;;;5024111;28;43745;-57
2022/12/04 05:37:25;;;;;;;9.77;8.88;;;18.60;51.50;;;;;;5034895;28;43486;-57
2022/12/04 05:39:52;;;;;;;9.73;8.82;;;18.60;51.50;;;;;;5043266;28;43459;-58
2022/12/04 05:42:21;;;;;;;9.30;8.40;;;18.50;51.60;;;;;;5042805;28;43471;-58
2022/12/04 05:44:49;;;;;;;9.93;9.02;;;18.50;51.50;;;;;;5043729;28;43620;-57
2022/12/04 05:47:16;;;;;;;10.15;9.25;;;18.50;51.60;;;;;;5043728;28;43992;-58
2022/12/04 05:49:43;;;;;;;10.13;9.13;;;18.50;51.60;;;;;;5042787;28;43999;-57
2022/12/04 05:52:11;;;;;;;9.80;8.90;;;18.50;51.60;;;;;;5043121;28;43577;-57
2022/12/04 05:54:39;;;;;;;9.48;8.63;;;18.50;51.60;;;;;;5043228;28;44721;-58
2022/12/04 05:57:07;;;;;;;10.40;9.40;;;18.40;51.60;;;;;;5042909;28;44065;-58
2022/12/04 05:59:35;;;;;;;9.80;8.93;;;18.40;51.50;;;;;;5043197;28;43494;-58
2022/12/04 06:02:02;;;;;;;10.90;9.90;;;18.40;52.30;;;;;;5041307;28;43518;-57
2022/12/04 06:04:30;;;;;;;10.18;9.25;;;18.40;51.60;;;;;;5041134;28;43797;-58
2022/12/04 06:06:57;;;;;;;10.82;9.82;;;18.40;51.60;;;;;;5041145;28;43868;-58
2022/12/04 06:09:25;;;;;;;9.95;9.05;;;18.40;51.60;;;;;;5038912;28;43412;-58
2022/12/04 06:11:56;;;;;;;10.02;9.13;;;18.40;51.60;;;;;;5038273;28;43470;-57
2022/12/04 06:14:24;;;;;;;;;;;18.40;51.60;;;;;;5024042;28;44695;-58
2022/12/04 06:16:51;;;;;;;10.70;9.70;;;18.40;51.50;;;;;;5034239;28;43473;-58
2022/12/04 06:19:21;;;;;;;10.65;9.65;;;18.40;51.50;;;;;;5035997;28;43524;-58
2022/12/04 06:21:51;;;;;;;11.02;10.02;;;18.40;51.50;;;;;;5037384;28;43521;-57
2022/12/04 06:24:22;;;;;;;10.77;9.88;;;18.40;51.40;;;;;;5030588;28;44983;-58
2022/12/04 06:26:50;;;;;;;10.15;9.25;;;18.40;51.30;;;;;;5038749;28;44201;-58
2022/12/04 06:29:37;;;;;;;10.45;9.50;;;18.40;51.30;;;;;;5042283;28;43444;-58
2022/12/04 06:32:05;;;;;;;10.18;9.27;;;18.40;51.30;;;;;;5029398;28;43516;-58
2022/12/04 06:34:34;;;;;;;10.85;9.85;;;18.40;51.30;;;;;;5042892;28;44708;-57
2022/12/04 06:37:01;;;;;;;10.57;9.60;;;18.40;51.40;;;;;;5042403;28;44022;-58
2022/12/04 06:39:29;;;;;;;10.68;9.63;;;18.40;51.40;;;;;;5041103;28;43567;-58
2022/12/04 06:41:56;;;;;;;10.30;9.40;;;18.40;51.30;;;;;;5026005;28;43532;-58
2022/12/04 06:44:24;;;;;;;10.23;9.30;;;18.40;51.30;;;;;;5034493;28;43880;-57
2022/12/04 06:46:51;;;;;;;10.23;9.32;;;18.40;51.30;;;;;;5033717;28;44898;-57
2022/12/04 06:49:21;;;;;;;10.15;9.25;;;18.30;51.30;;;;;;5031093;28;43402;-58
2022/12/04 06:51:49;;;;;;;10.30;9.40;;;18.30;51.30;;;;;;5035952;28;43433;-57
2022/12/04 06:54:16;;;;;;;10.40;9.50;;;18.30;51.40;;;;;;5033323;28;43897;-58
2022/12/04 06:56:44;;;;;;;10.27;9.38;;;18.30;51.30;;;;;;5030990;28;43420;-57
2022/12/04 06:59:11;;;;;;;10.32;9.43;;;18.30;51.40;;;;;;5030964;28;43976;-57
2022/12/04 07:01:39;;;;;;;10.20;9.30;;;18.30;51.40;;;;;;5042659;28;43437;-58
2022/12/04 07:04:06;;;;;;;10.57;9.68;;;18.30;51.30;;;;;;5040709;28;43928;-58
2022/12/04 07:06:35;;;;;;;11.02;10.02;;;18.30;51.40;;;;;;5036303;28;43500;-58
2022/12/04 07:09:05;;;;;;;10.23;9.30;;;18.30;51.50;;;;;;5034524;28;43386;-58
2022/12/04 07:11:33;;;;;;;9.98;9.07;;;18.30;51.40;;;;;;5042583;28;43431;-58
2022/12/04 07:14:00;;;;;;;9.80;9.00;;;18.30;51.40;;;;;;5041335;28;45118;-57
2022/12/04 07:16:29;;;;;;;10.00;9.10;;;18.20;51.50;;;;;;5033212;28;43392;-58
2022/12/04 07:19:04;;;;;;;10.35;9.40;;;18.20;51.50;;;;;;5031817;28;43480;-58
2022/12/04 07:21:33;;;;;;;10.35;9.45;;;18.20;51.50;;;;;;5027977;28;43510;-58
2022/12/04 07:24:01;;;;;;;10.02;9.13;;;18.20;51.50;;;;;;5039428;28;43819;-58
2022/12/04 07:26:29;;;;;;;10.07;9.18;;;18.20;51.50;;;;;;5033983;28;43431;-58
2022/12/04 07:28:58;;;;;;;9.82;8.93;;;18.20;51.70;;;;;;5031428;28;43495;-58
2022/12/04 07:31:28;;;;;;;9.75;8.88;;;18.10;51.70;;;;;;5029903;28;43543;-58
2022/12/04 07:33:56;;;;;;;9.70;8.80;;;18.10;51.80;;;;;;5038877;28;45342;-58
2022/12/04 07:36:25;;;;;;;9.43;8.63;;;18.00;51.80;;;;;;5025521;28;43466;-58
2022/12/04 07:38:55;;;;;;;9.57;8.68;;;18.10;51.90;;;;;;5034285;28;43554;-57
2022/12/04 07:41:22;;;;;;;10.32;9.43;;;18.00;52.20;;;;;;5027142;28;43494;-57
2022/12/04 07:43:50;;;;;;;9.30;8.50;;;18.10;52.10;;;;;;5033708;28;44767;-56
2022/12/04 07:46:21;;;;;;;9.40;8.60;;;18.10;52.10;;;;;;5040585;28;43432;-57
2022/12/04 07:48:48;;;;;;;;;;;18.00;52.10;;;;;;5040683;28;43473;-57
2022/12/04 07:51:19;;;;;;;9.60;8.80;;;18.00;52.10;;;;;;5025190;28;43586;-57
2022/12/04 07:53:48;;;;;;;9.18;8.38;;;18.00;52.10;;;;;;5038460;28;44702;-57
2022/12/04 07:56:16;;;;;;;10.35;9.35;;;18.00;52.10;;;;;;5035158;28;43695;-57
2022/12/04 07:58:44;;;;;;;9.52;8.73;;;18.00;52.20;;;;;;5037210;28;43367;-57
2022/12/04 08:01:21;;;;;;;9.88;9.05;;;18.00;52.10;;;;;;5040052;28;43478;-57
2022/12/04 08:03:50;;;;;;;9.80;8.90;;;18.00;52.10;;;;;;5033549;28;44997;-57
2022/12/04 08:06:20;;;;;;;9.32;8.52;;;17.90;52.10;;;;;;5034747;28;43443;-57
2022/12/04 08:08:49;;;;;;;9.77;8.88;;;18.00;52.10;;;;;;5036287;28;43432;-58
2022/12/04 08:11:21;;;;;;;9.43;8.63;;;18.00;52.10;;;;;;5033763;28;43453;-57
2022/12/04 08:13:52;;;;;;;9.32;8.50;;;17.90;52.10;;;;;;5038266;28;44064;-58
2022/12/04 08:16:20;;;;;;;9.95;8.95;;;17.90;52.10;;;;;;5040973;28;43472;-57
2022/12/04 08:18:47;;;;;;;9.10;8.30;;;17.90;52.20;;;;;;5028742;28;43548;-57
2022/12/04 08:21:19;;;;;;;9.07;8.27;;;18.00;52.10;;;;;;5036920;28;43667;-58
2022/12/04 08:23:49;;;;;;;9.85;8.95;;;18.00;52.10;;;;;;5040584;28;43769;-57
2022/12/04 08:26:17;;;;;;;9.30;8.40;;;17.90;52.20;;;;;;5033290;28;43451;-57
2022/12/04 08:28:45;;;;;;;8.95;8.10;;;17.90;52.30;;;;;;5018787;28;43517;-57
2022/12/04 08:31:16;;;;;;;9.23;8.43;;;18.00;52.40;;;;;;5029556;28;43592;-57
2022/12/04 08:33:46;;;;;;;9.63;8.73;;;18.00;52.40;;;;;;5033747;28;43796;-57
2022/12/04 08:36:16;;;;;;;9.63;8.73;;;18.10;52.40;;;;;;5031717;28;43499;-56
2022/12/04 08:38:44;;;;;;;8.40;7.60;;;18.20;52.20;;;;;;5024278;28;43397;-57
2022/12/04 08:41:14;;;;;;;8.50;7.68;;;18.30;52.10;;;;;;5026418;28;43978;-57
2022/12/04 08:43:41;;;;;;;9.85;8.95;;;18.30;51.90;;;;;;5039522;28;43809;-56
2022/12/04 08:46:12;;;;;;;9.23;8.32;;;18.40;51.90;;;;;;5036569;28;43651;-56
2022/12/04 08:48:40;;;;;;;9.25;8.45;;;18.50;51.70;;;;;;5023727;28;43521;-56
2022/12/04 08:51:15;;;;;;;9.00;8.20;;;18.60;51.70;;;;;;5030816;28;43626;-56
2022/12/04 08:53:43;;;;;;;9.25;8.45;;;18.60;51.70;;;;;;5027366;28;44973;-56
2022/12/04 08:56:10;;;;;;;9.27;8.48;;;18.70;51.60;;;;;;5032637;28;43447;-58
2022/12/04 08:58:38;;;;;;;8.77;7.97;;;18.80;52.40;;;;;;5033629;28;43924;-57
2022/12/04 09:01:12;;;;;;;9.40;7.70;;;18.80;51.40;;;;;;5033976;28;44304;-58
2022/12/04 09:03:40;;;;;;;8.93;7.60;;;18.90;51.20;;;;;;5032496;28;44014;-58
2022/12/04 09:06:11;;;;;;;8.43;7.63;;;19.00;51.20;;;;;;5031860;28;43993;-57
2022/12/04 09:08:39;;;;;;;10.33;7.77;;;19.00;51.00;;;;;;5031680;28;43444;-58
2022/12/04 09:11:18;;;;;;;8.73;7.82;;;19.00;51.10;;;;;;5031692;28;43535;-58
2022/12/04 09:13:46;;;;;;;8.35;7.55;;;19.10;51.10;;;;;;5039204;28;44029;-58
2022/12/04 09:16:20;;;;;;;8.20;7.45;;;19.20;51.10;;;;;;5039158;28;43660;-57
2022/12/04 09:18:49;;;;;;;7.88;7.07;;;19.30;50.90;;;;;;5037645;28;43479;-58
2022/12/04 09:21:18;;;;;;;8.38;7.40;;;19.40;50.80;;;;;;5029702;28;43503;-57
2022/12/04 09:23:46;;;;;;;8.15;7.32;;;19.50;50.80;;;;;;5024381;28;44158;-58
2022/12/04 09:26:22;;;;;;;7.32;6.63;;;19.60;50.70;;;;;;5031126;28;43553;-58
2022/12/04 09:28:51;;;;;;;7.90;7.15;;;19.60;50.50;;;;;;5029462;28;43493;-58
2022/12/04 09:31:19;;;;;;;9.70;7.07;;;19.70;50.50;;;;;;5030419;28;43432;-59
2022/12/04 09:33:47;;;;;;;7.28;6.68;;;19.70;50.60;;;;;;5036838;28;44086;-59
2022/12/04 09:36:15;;;;;;;7.78;6.95;;;19.80;50.70;;;;;;5035286;28;43623;-58
2022/12/04 09:38:53;;;;;;;7.93;7.13;;;19.90;51.40;;;;;;5041603;28;43538;-58
2022/12/04 09:41:35;;;;;;;7.43;6.72;;;20.10;50.30;;;;;;5027322;28;43567;-58
2022/12/04 09:44:13;;;;;;;7.07;6.38;;;20.20;50.40;;;;;;5031550;28;43809;-59
2022/12/04 09:46:52;;;;;;;8.05;6.38;;;20.30;50.10;;;;;;5030342;28;43423;-59
2022/12/04 09:49:47;;;;;;;7.70;6.85;;;20.50;50.30;;;;;;5027981;28;43384;-60
2022/12/04 09:52:42;;;;;;;7.10;6.40;;;20.50;50.00;;;;;;5037471;28;44144;-59
2022/12/04 09:55:21;;;;;;;7.40;6.30;;;20.70;50.10;;;;;;5024781;28;44667;-59
2022/12/04 09:57:51;;;;;;;7.13;6.43;;;20.80;49.80;;;;;;5032029;28;43500;-59
2022/12/04 10:00:28;;;;;;;6.88;6.25;;;20.90;49.70;;;;;;5028810;28;43491;-58
2022/12/04 10:03:02;;;;;;;7.47;6.78;;;21.00;49.60;;;;;;5035626;28;43562;-58
2022/12/04 10:05:51;;;;;;;7.32;5.97;;;21.10;49.20;;;;;;5032717;28;46001;-57
2022/12/04 10:08:28;;;;;;;6.70;6.03;;;21.10;49.10;;;;;;5039258;28;43650;-58
2022/12/04 10:11:18;;;;;;;7.38;6.63;;;21.20;49.50;;;;;;5030181;28;43457;-58
2022/12/04 10:14:25;;;;;;;7.40;6.60;;;21.30;49.30;;;;;;5035472;28;43510;-58
2022/12/04 10:17:25;;;;;;;7.22;6.35;;;21.40;49.00;;;;;;5026144;28;43855;-58
2022/12/04 10:20:21;;;;;;;6.53;5.93;;;21.50;49.10;;;;;;5010107;28;44676;-58
2022/12/04 10:23:21;;;;;;;6.72;6.05;;;21.60;48.80;;;;;;5017509;28;43515;-58
2022/12/04 10:25:50;;;;;;;6.15;5.57;;;21.70;49.10;;;;;;5030740;28;43459;-58
2022/12/04 10:28:22;;;;;;;6.70;6.10;;;21.80;48.70;;;;;;5028032;28;44014;-59
2022/12/04 10:30:53;;;;;;;6.28;5.68;;;21.90;48.70;;;;;;5027072;28;43644;-57
2022/12/04 10:33:34;;;;;;;6.75;5.85;;;22.00;48.50;;;;;;5034849;28;43579;-57
2022/12/04 10:36:02;;;;;;;6.57;5.88;;;22.00;48.30;;;;;;5037056;28;43464;-58
2022/12/04 10:38:47;;;;;;;6.32;5.72;;;22.20;48.00;;;;;;5030055;28;43808;-58
2022/12/04 10:41:44;;;;;;;5.85;5.35;;;22.20;47.90;;;;;;5036538;28;43899;-57
2022/12/04 10:44:16;;;;;;;5.78;5.22;;;22.30;48.00;;;;;;5026268;28;43521;-58
2022/12/04 10:46:44;;;;;;;6.43;5.80;;;22.40;47.80;;;;;;5037843;28;43575;-57
2022/12/04 10:49:21;;;;;;;6.43;5.80;;;22.40;47.70;;;;;;5033110;28;44952;-58
2022/12/04 10:51:49;;;;;;;6.03;5.53;;;22.40;47.70;;;;;;5033974;28;43811;-57
2022/12/04 10:54:39;;;;;;;7.50;5.40;;;22.40;47.70;;;;;;5038524;28;43503;-58
2022/12/04 10:57:09;;;;;;;6.13;5.35;;;22.40;47.90;;;;;;5030203;28;43551;-58
2022/12/04 10:59:51;;;;;;;6.68;5.40;;;22.40;47.80;;;;;;5036197;28;43782;-58
2022/12/04 11:02:29;;;;;;;5.43;4.93;;;22.50;47.60;;;;;;5037680;28;43459;-58
2022/12/04 11:04:59;;;;;;;7.38;5.97;;;22.50;47.70;;;;;;5030023;28;43527;-60
2022/12/04 11:07:30;;;;;;;6.35;5.75;;;22.50;47.90;;;;;;5033504;28;43591;-60
2022/12/04 11:10:17;;;;;;;6.18;5.57;;;22.50;47.80;;;;;;5032087;28;44402;-60
2022/12/04 11:13:06;;;;;;;5.90;5.30;;;22.60;47.70;;;;;;5026943;28;43985;-60
2022/12/04 11:15:43;;;;;;;5.90;5.40;;;22.50;47.90;;;;;;5029970;28;43590;-60
2022/12/04 11:18:47;;;;;;;5.60;5.03;;;22.50;47.60;;;;;;5027811;28;43403;-60
2022/12/04 11:21:26;;;;;;;6.20;5.60;;;22.50;47.70;;;;;;5027102;28;44990;-59
2022/12/04 11:23:54;;;;;;;6.10;5.50;;;22.50;47.80;;;;;;5028176;28;44114;-60
2022/12/04 11:26:40;;;;;;;5.97;5.45;;;22.50;47.80;;;;;;5031816;28;43473;-59
2022/12/04 11:29:15;;;;;;;5.45;5.00;;;22.40;47.80;;;;;;5026874;28;43535;-59
2022/12/04 11:31:51;;;;;;;6.25;5.65;;;22.40;47.80;;;;;;5032348;28;44035;-60
2022/12/04 11:34:23;;;;;;;6.32;5.72;;;22.40;47.80;;;;;;5025113;28;43553;-60
2022/12/04 11:36:54;;;;;;;5.95;5.18;;;22.30;48.10;;;;;;5030088;28;43413;-59
2022/12/04 11:39:35;;;;;;;5.88;5.38;;;22.30;48.10;;;;;;5034347;28;43584;-60
2022/12/04 11:42:12;;;;;;;;;;;22.20;48.30;;;;;;5034620;28;43986;-60
2022/12/04 11:44:49;;;;;;;5.72;5.22;;;22.20;48.20;;;;;;5027780;28;43502;-60
2022/12/04 11:47:18;;;;;;;7.75;5.32;;;22.10;48.30;;;;;;5038520;28;43379;-60
2022/12/04 11:50:00;;;;;;;5.85;5.32;;;22.00;48.30;;;;;;5033512;28;43483;-60
2022/12/04 11:52:55;;;;;;;5.78;5.28;;;22.00;48.40;;;;;;5028852;28;44969;-60
2022/12/04 11:55:46;;;;;;;6.10;5.50;;;21.90;48.40;;;;;;5032587;28;43904;-60
2022/12/04 11:58:44;;;;;;;5.90;5.40;;;21.90;48.40;;;;;;5029579;28;43378;-59
2022/12/04 12:01:24;;;;;;;6.82;5.60;;;21.80;48.50;;;;;;5029617;28;43468;-59
2022/12/04 12:04:07;;;;;;;5.72;5.22;;;21.70;48.50;;;;;;5030821;28;44801;-60
2022/12/04 12:06:38;;;;;;;6.03;5.20;;;21.70;48.50;;;;;;5030221;28;43458;-60
2022/12/04 12:09:32;;;;;;;5.93;5.35;;;21.70;48.70;;;;;;5020955;28;43453;-60
2022/12/04 12:12:13;;;;;;;6.63;5.25;;;21.60;48.70;;;;;;5033618;28;43514;-60
2022/12/04 12:14:44;;;;;;;;;;;21.60;48.80;;;;;;5039778;28;43792;-59
2022/12/04 12:17:45;;;;;;;6.35;5.22;;;21.50;48.90;;;;;;5021171;28;43503;-59
2022/12/04 12:20:16;;;;;;;5.50;5.00;;;21.50;49.00;;;;;;5028645;28;43482;-59
2022/12/04 12:23:06;;;;;;;6.50;5.13;;;21.40;49.10;;;;;;5025446;28;43519;-59
2022/12/04 12:26:04;;;;;;;5.47;4.97;;;21.40;49.20;;;;;;5025318;28;43794;-59
2022/12/04 12:28:56;;;;;;;5.80;5.05;;;21.30;49.20;;;;;;5029915;28;44009;-59
2022/12/04 12:31:56;;;;;;;5.30;4.80;;;21.30;49.30;;;;;;5034201;28;43547;-59
2022/12/04 12:34:29;;;;;;;5.60;5.10;;;21.40;49.30;;;;;;5031664;28;43963;-59
2022/12/04 12:36:59;;;;;;;5.47;4.97;;;21.30;49.40;;;;;;5033886;28;45126;-59
2022/12/04 12:39:44;;;;;;;5.82;4.95;;;21.30;49.30;;;;;;5038273;28;44941;-59
2022/12/04 12:42:19;;;;;;;5.60;5.10;;;21.20;49.60;;;;;;5035842;28;43528;-59
2022/12/04 12:44:50;;;;;;;5.70;5.20;;;21.30;49.40;;;;;;5037173;28;43445;-60
2022/12/04 12:47:33;;;;;;;5.40;4.90;;;21.20;49.40;;;;;;5031130;28;45351;-59
2022/12/04 12:50:14;;;;;;;4.85;4.45;;;21.20;49.60;;;;;;5033250;28;43438;-59
2022/12/04 12:52:50;;;;;;;;;;;21.10;49.50;;;;;;5031692;28;43463;-59
2022/12/04 12:55:25;;;;;;;5.50;5.00;;;21.10;49.60;;;;;;5033430;28;43537;-59
2022/12/04 12:58:13;;;;;;;5.35;4.90;;;21.00;49.60;;;;;;5031571;28;44675;-59
2022/12/04 13:00:57;;;;;;;5.05;4.65;;;21.00;49.80;;;;;;5030201;28;43569;-59
2022/12/04 13:03:32;;;;;;;5.25;4.78;;;21.00;49.90;;;;;;5034806;28;43597;-59
2022/12/04 13:06:05;;;;;;;5.55;5.05;;;21.00;49.90;;;;;;5035245;28;43506;-59
2022/12/04 13:09:07;;;;;;;5.00;4.60;;;21.00;49.90;;;;;;5029712;28;44054;-59
2022/12/04 13:11:36;;;;;;;5.45;4.95;;;21.00;49.80;;;;;;5005571;28;43534;-59
2022/12/04 13:14:04;;;;;;;5.53;5.03;;;21.00;49.80;;;;;;5036592;28;43489;-59
2022/12/04 13:16:36;;;;;;;5.05;4.65;;;20.90;49.70;;;;;;5037916;28;43570;-59
2022/12/04 13:19:28;;;;;;;5.53;5.03;;;20.90;49.80;;;;;;5031946;28;44704;-59
2022/12/04 13:22:23;;;;;;;5.30;4.80;;;20.90;49.90;;;;;;5032508;28;43465;-59
2022/12/04 13:25:12;;;;;;;5.30;4.90;;;20.80;50.00;;;;;;5029703;28;43462;-59
2022/12/04 13:28:09;;;;;;;5.22;4.80;;;20.80;50.00;;;;;;5031585;28;43507;-59
2022/12/04 13:30:53;;;;;;;6.03;5.43;;;20.80;49.80;;;;;;5011983;28;44824;-59
2022/12/04 13:33:20;;;;;;;5.55;5.03;;;20.80;49.90;;;;;;5030408;28;43973;-59
2022/12/04 13:36:17;;;;;;;5.40;4.90;;;20.80;49.80;;;;;;5034042;28;43490;-59